Time;durP1;ratioP1;P1;durP2;ratioP2;P2;SDS_P1;SDS_P2;PMS_P1;PMS_P2;Temp;Humidity;BMP_temperature;BMP_pressure;BME280_temperature;BME280_humidity;BME280_pressure;Samples;Min_cycle;Max_cycle;Signal;HPM_P1;HPM_P2
2021/04/09 00:02:13;;;;;;;13.50;10.05;;;1.90;92.80;;;;;;4932006;29;20590;-66
2021/04/09 00:04:39;;;;;;;12.85;10.23;;;1.80;93.20;;;;;;4930287;29;20700;-66
2021/04/09 00:07:06;;;;;;;12.40;9.65;;;1.70;93.60;;;;;;4931164;29;20239;-67
2021/04/09 00:09:33;;;;;;;13.25;9.10;;;1.60;93.70;;;;;;4931048;29;20210;-67
2021/04/09 00:12:00;;;;;;;11.63;10.40;;;1.60;94.10;;;;;;4930898;29;20236;-66
2021/04/09 00:14:26;;;;;;;14.15;10.55;;;1.50;94.20;;;;;;4930064;29;20272;-66
2021/04/09 00:16:53;;;;;;;11.85;9.68;;;1.50;94.30;;;;;;4931566;29;20206;-67
2021/04/09 00:19:23;;;;;;;13.05;9.85;;;1.50;94.40;;;;;;4932076;29;20257;-67
2021/04/09 00:21:49;;;;;;;11.82;10.07;;;1.50;94.60;;;;;;4930870;29;20210;-66
2021/04/09 00:24:15;;;;;;;12.00;9.65;;;1.40;94.50;;;;;;4930125;29;20668;-67
2021/04/09 00:26:43;;;;;;;12.25;11.00;;;1.50;94.80;;;;;;4931408;29;20317;-68
2021/04/09 00:29:10;;;;;;;10.55;9.43;;;1.40;94.80;;;;;;4931670;29;20205;-66
2021/04/09 00:31:36;;;;;;;14.73;10.40;;;1.40;94.90;;;;;;4931826;29;20206;-66
2021/04/09 00:34:04;;;;;;;14.18;10.10;;;1.40;95.10;;;;;;4930103;29;20276;-67
2021/04/09 00:36:32;;;;;;;11.77;10.30;;;1.30;95.30;;;;;;4927096;29;20213;-67
2021/04/09 00:38:58;;;;;;;11.95;10.55;;;1.30;95.80;;;;;;4929865;29;20226;-67
2021/04/09 00:41:25;;;;;;;12.60;11.40;;;1.40;95.50;;;;;;4931344;29;20213;-67
2021/04/09 00:43:52;;;;;;;11.45;9.82;;;1.40;95.50;;;;;;4930412;29;20609;-66
2021/04/09 00:46:19;;;;;;;13.20;10.25;;;1.40;95.60;;;;;;4930973;29;20232;-66
2021/04/09 00:48:45;;;;;;;13.20;10.75;;;1.40;95.70;;;;;;4931071;29;20209;-67
2021/04/09 00:51:11;;;;;;;13.20;10.00;;;1.30;95.50;;;;;;4930918;29;20569;-66
2021/04/09 00:53:40;;;;;;;14.95;10.75;;;1.40;95.70;;;;;;4931352;29;20288;-67
2021/04/09 00:56:08;;;;;;;14.30;11.18;;;1.50;95.60;;;;;;4928528;29;20410;-66
2021/04/09 00:58:34;;;;;;;17.83;11.65;;;1.40;95.70;;;;;;4930832;29;20353;-66
2021/04/09 01:01:02;;;;;;;14.52;11.65;;;1.40;95.90;;;;;;4927403;29;20206;-67
2021/04/09 01:03:29;;;;;;;12.35;10.13;;;1.40;95.80;;;;;;4928648;29;20220;-66
2021/04/09 01:05:56;;;;;;;12.40;10.63;;;1.40;95.90;;;;;;4927173;29;20238;-67
2021/04/09 01:08:22;;;;;;;11.40;10.20;;;1.40;96.00;;;;;;4928054;29;20734;-66
2021/04/09 01:10:48;;;;;;;14.05;12.40;;;1.30;96.60;;;;;;4927121;29;20217;-66
2021/04/09 01:13:15;;;;;;;12.55;10.88;;;1.20;96.60;;;;;;4929782;29;20297;-67
2021/04/09 01:15:41;;;;;;;16.70;12.00;;;1.20;96.80;;;;;;4929708;29;20210;-66
2021/04/09 01:18:15;;;;;;;14.32;11.68;;;1.00;97.00;;;;;;4929578;29;20218;-66
2021/04/09 01:20:55;;;;;;;16.30;12.27;;;1.00;97.60;;;;;;4930610;29;20274;-67
2021/04/09 01:23:31;;;;;;;14.00;11.73;;;1.00;97.40;;;;;;4930070;29;20209;-66
2021/04/09 01:26:35;;;;;;;16.70;11.90;;;1.00;97.60;;;;;;4926082;29;20230;-66
2021/04/09 01:29:22;;;;;;;15.30;11.65;;;1.00;97.80;;;;;;4923655;29;20201;-67
2021/04/09 01:31:53;;;;;;;14.23;12.82;;;0.90;98.00;;;;;;4929216;29;20723;-66
2021/04/09 01:34:20;;;;;;;13.70;12.25;;;0.80;98.30;;;;;;4929062;29;20220;-66
2021/04/09 01:36:52;;;;;;;15.13;12.65;;;0.80;98.60;;;;;;4930139;29;20212;-66
2021/04/09 01:39:24;;;;;;;14.18;12.15;;;0.80;98.60;;;;;;4929171;29;20206;-66
2021/04/09 01:41:52;;;;;;;19.20;12.70;;;0.80;98.60;;;;;;4929789;29;21019;-66
2021/04/09 01:44:23;;;;;;;18.85;11.98;;;0.70;98.70;;;;;;4928995;29;20212;-66
2021/04/09 01:46:54;;;;;;;15.80;12.38;;;0.70;99.10;;;;;;4928722;29;20314;-66
2021/04/09 01:49:22;;;;;;;15.20;12.10;;;0.60;99.40;;;;;;4930010;29;20288;-66
2021/04/09 01:51:50;;;;;;;14.15;12.60;;;0.50;99.50;;;;;;4928471;29;20216;-66
2021/04/09 01:54:19;;;;;;;15.45;11.95;;;0.40;99.70;;;;;;4928725;29;20210;-66
2021/04/09 01:56:47;;;;;;;19.73;13.63;;;0.40;99.90;;;;;;4929405;29;20206;-66
2021/04/09 01:59:14;;;;;;;15.80;12.50;;;0.40;99.90;;;;;;4929525;29;20217;-66
2021/04/09 02:01:44;;;;;;;15.32;13.05;;;0.30;99.90;;;;;;4929961;29;20264;-66
2021/04/09 02:04:12;;;;;;;17.70;14.00;;;0.40;99.90;;;;;;4929221;29;20345;-67
2021/04/09 02:06:40;;;;;;;17.20;13.68;;;0.40;99.90;;;;;;4929053;29;20726;-67
2021/04/09 02:09:07;;;;;;;15.75;13.55;;;0.50;99.90;;;;;;4928678;29;20210;-66
2021/04/09 02:11:35;;;;;;;15.93;13.40;;;0.50;99.90;;;;;;4924334;29;20296;-66
2021/04/09 02:14:03;;;;;;;16.75;14.43;;;0.60;99.90;;;;;;4928577;29;20206;-67
2021/04/09 02:16:30;;;;;;;19.00;13.32;;;0.60;99.90;;;;;;4928805;29;20755;-66
2021/04/09 02:18:57;;;;;;;18.38;14.55;;;0.70;99.90;;;;;;4928983;29;20213;-67
2021/04/09 02:21:25;;;;;;;17.77;13.95;;;0.80;99.90;;;;;;4928768;29;20206;-66
2021/04/09 02:23:51;;;;;;;15.10;13.50;;;0.70;99.90;;;;;;4928252;29;20198;-66
2021/04/09 02:26:18;;;;;;;17.85;14.27;;;0.70;99.90;;;;;;4927596;29;20238;-66
2021/04/09 02:28:45;;;;;;;17.63;14.13;;;0.70;99.90;;;;;;4928764;29;20213;-66
2021/04/09 02:31:13;;;;;;;15.52;13.30;;;0.70;99.90;;;;;;4928138;29;20206;-66
2021/04/09 02:33:41;;;;;;;18.50;13.38;;;0.70;99.90;;;;;;4928980;29;20205;-66
2021/04/09 02:36:10;;;;;;;17.17;13.38;;;0.70;99.90;;;;;;4927567;29;20202;-66
2021/04/09 02:38:38;;;;;;;13.70;12.25;;;0.70;99.90;;;;;;4926830;29;20657;-66
2021/04/09 02:41:05;;;;;;;20.38;13.63;;;0.60;99.90;;;;;;4927467;29;20206;-66
2021/04/09 02:43:32;;;;;;;14.27;12.23;;;0.60;99.90;;;;;;4928913;29;20217;-66
2021/04/09 02:45:58;;;;;;;15.07;13.32;;;0.50;99.90;;;;;;4925534;29;20372;-66
2021/04/09 02:48:28;;;;;;;22.33;14.60;;;0.50;99.90;;;;;;4927368;29;20213;-66
2021/04/09 02:50:56;;;;;;;19.50;14.70;;;0.50;99.90;;;;;;4919995;29;20208;-66
2021/04/09 02:53:28;;;;;;;20.20;13.98;;;0.50;99.90;;;;;;4929357;29;20209;-66
2021/04/09 02:55:57;;;;;;;23.33;14.27;;;0.40;99.90;;;;;;4919379;29;20214;-66
2021/04/09 02:58:25;;;;;;;17.45;13.82;;;0.40;99.90;;;;;;4926818;29;20258;-67
2021/04/09 03:00:53;;;;;;;18.15;14.05;;;0.30;99.90;;;;;;4927879;29;20602;-66
2021/04/09 03:03:19;;;;;;;16.30;14.13;;;0.30;99.90;;;;;;4928163;29;20241;-66
2021/04/09 03:05:49;;;;;;;20.10;13.85;;;0.30;99.90;;;;;;4927868;29;20206;-67
2021/04/09 03:08:17;;;;;;;16.40;13.02;;;0.20;99.90;;;;;;4927368;29;20220;-66
2021/04/09 03:10:44;;;;;;;14.05;12.43;;;0.20;99.90;;;;;;4925058;29;20210;-66
2021/04/09 03:13:12;;;;;;;16.27;13.07;;;0.20;99.90;;;;;;4926940;29;20201;-66
2021/04/09 03:15:42;;;;;;;16.08;12.20;;;0.20;99.90;;;;;;4927259;29;20790;-66
2021/04/09 03:18:10;;;;;;;16.80;13.00;;;0.20;99.90;;;;;;4927985;29;20197;-66
2021/04/09 03:20:37;;;;;;;15.35;11.90;;;0.10;99.90;;;;;;4928066;29;20236;-66
2021/04/09 03:23:04;;;;;;;16.73;12.60;;;0.00;99.90;;;;;;4927407;29;20257;-66
2021/04/09 03:25:31;;;;;;;14.18;12.60;;;0.00;99.90;;;;;;4927031;29;20224;-66
2021/04/09 03:27:57;;;;;;;19.52;14.38;;;-0.10;99.90;;;;;;4927608;29;20241;-66
2021/04/09 03:30:26;;;;;;;16.52;13.40;;;-0.10;99.90;;;;;;4929005;29;20212;-67
2021/04/09 03:32:52;;;;;;;14.80;13.00;;;-0.20;99.90;;;;;;4928497;29;20301;-66
2021/04/09 03:35:19;;;;;;;17.23;12.70;;;-0.20;99.90;;;;;;4927780;29;20214;-66
2021/04/09 03:37:46;;;;;;;18.83;13.45;;;-0.20;99.90;;;;;;4928274;29;20296;-66
2021/04/09 03:40:13;;;;;;;14.05;12.45;;;-0.10;99.90;;;;;;4928008;29;20749;-66
2021/04/09 03:42:40;;;;;;;17.63;12.57;;;-0.10;99.90;;;;;;4927924;29;20656;-67
2021/04/09 03:45:08;;;;;;;15.18;12.95;;;-0.20;99.90;;;;;;4927022;29;20300;-66
2021/04/09 03:47:35;;;;;;;18.42;13.88;;;-0.20;99.90;;;;;;4925543;29;20337;-66
2021/04/09 03:50:02;;;;;;;16.75;12.88;;;-0.20;99.90;;;;;;4928393;29;20229;-66
2021/04/09 03:52:28;;;;;;;14.80;12.38;;;-0.20;99.90;;;;;;4928581;29;20210;-67
2021/04/09 03:54:54;;;;;;;14.60;12.98;;;-0.30;99.90;;;;;;4923445;29;20198;-66
2021/04/09 03:57:21;;;;;;;14.07;11.57;;;-0.30;99.90;;;;;;4923564;29;20214;-66
2021/04/09 03:59:47;;;;;;;15.13;12.00;;;-0.30;99.90;;;;;;4924683;29;20234;-66
2021/04/09 04:02:14;;;;;;;14.50;12.27;;;-0.30;99.90;;;;;;4928257;29;20213;-66
2021/04/09 04:04:41;;;;;;;16.17;13.60;;;-0.40;99.90;;;;;;4926539;29;20265;-66
2021/04/09 04:07:07;;;;;;;15.93;11.93;;;-0.30;99.90;;;;;;4925770;29;20319;-66
2021/04/09 04:09:34;;;;;;;14.88;11.82;;;-0.40;99.90;;;;;;4924078;29;20296;-66
2021/04/09 04:12:00;;;;;;;13.68;11.98;;;-0.40;99.90;;;;;;4932021;29;20210;-67
2021/04/09 04:14:26;;;;;;;16.17;11.45;;;-0.40;99.90;;;;;;4931513;29;20572;-67
2021/04/09 04:16:53;;;;;;;19.60;13.20;;;-0.30;99.90;;;;;;4931081;29;20213;-66
2021/04/09 04:19:19;;;;;;;16.70;11.43;;;-0.30;99.90;;;;;;4930309;29;20310;-66
2021/04/09 04:21:46;;;;;;;15.65;12.05;;;-0.30;99.90;;;;;;4929099;29;20643;-66
2021/04/09 04:24:12;;;;;;;16.75;12.00;;;-0.30;99.90;;;;;;4929011;29;20683;-66
2021/04/09 04:26:39;;;;;;;12.93;11.60;;;-0.30;99.90;;;;;;4926422;29;20226;-66
2021/04/09 04:29:05;;;;;;;13.48;11.23;;;-0.30;99.90;;;;;;4926741;29;20576;-65
2021/04/09 04:31:31;;;;;;;15.88;11.85;;;-0.40;99.90;;;;;;4931248;29;20248;-66
2021/04/09 04:33:58;;;;;;;13.82;10.98;;;-0.40;99.90;;;;;;4927690;29;20297;-66
2021/04/09 04:36:24;;;;;;;13.18;11.77;;;-0.40;99.90;;;;;;4929933;29;20209;-67
2021/04/09 04:38:51;;;;;;;13.65;11.90;;;-0.20;99.90;;;;;;4930845;29;20309;-66
2021/04/09 04:41:18;;;;;;;15.23;12.13;;;-0.30;99.90;;;;;;4930641;29;20206;-66
2021/04/09 04:43:44;;;;;;;17.20;13.60;;;-0.30;99.90;;;;;;4931280;29;20212;-66
2021/04/09 04:46:11;;;;;;;15.00;12.35;;;-0.30;99.90;;;;;;4930777;29;20240;-66
2021/04/09 04:48:38;;;;;;;16.92;13.13;;;-0.30;99.90;;;;;;4931406;29;20353;-67
2021/04/09 04:51:05;;;;;;;16.58;11.80;;;-0.10;99.90;;;;;;4931345;29;20202;-66
2021/04/09 04:53:31;;;;;;;13.68;11.85;;;-0.10;99.90;;;;;;4929693;29;20210;-66
2021/04/09 04:55:58;;;;;;;14.45;11.73;;;-0.20;99.90;;;;;;4929111;29;20202;-66
2021/04/09 04:58:25;;;;;;;13.63;12.18;;;-0.10;99.90;;;;;;4929520;29;20272;-66
2021/04/09 05:00:51;;;;;;;15.85;12.30;;;0.00;99.90;;;;;;4929260;29;20332;-66
2021/04/09 05:03:17;;;;;;;19.63;12.73;;;0.00;99.90;;;;;;4930427;29;20198;-66
2021/04/09 05:05:44;;;;;;;13.75;12.02;;;0.10;99.90;;;;;;4928527;29;20582;-67
2021/04/09 05:08:10;;;;;;;14.18;12.77;;;0.10;99.90;;;;;;4928782;29;20300;-67
2021/04/09 05:10:36;;;;;;;19.45;13.35;;;0.10;99.90;;;;;;4929614;29;20792;-66
2021/04/09 05:13:04;;;;;;;14.43;11.77;;;0.20;99.90;;;;;;4930109;29;20216;-67
2021/04/09 05:15:30;;;;;;;15.25;12.90;;;0.30;99.90;;;;;;4928856;29;20210;-66
2021/04/09 05:17:56;;;;;;;16.15;12.32;;;0.40;99.90;;;;;;4930558;29;20209;-67
2021/04/09 05:20:23;;;;;;;14.20;11.82;;;0.60;99.90;;;;;;4930573;29;20210;-67
2021/04/09 05:22:49;;;;;;;12.63;10.77;;;0.90;99.90;;;;;;4928050;29;20202;-67
2021/04/09 05:25:16;;;;;;;15.45;11.65;;;1.00;99.90;;;;;;4929657;29;20214;-67
2021/04/09 05:27:42;;;;;;;14.50;11.63;;;1.20;99.90;;;;;;4930445;29;20233;-67
2021/04/09 05:30:10;;;;;;;10.57;9.55;;;1.50;99.90;;;;;;4929966;29;20216;-67
2021/04/09 05:32:37;;;;;;;15.80;11.07;;;1.80;99.80;;;;;;4927655;29;20210;-67
2021/04/09 05:35:04;;;;;;;11.73;9.98;;;2.20;99.10;;;;;;4929204;29;20252;-67
2021/04/09 05:37:30;;;;;;;13.27;10.20;;;2.60;97.40;;;;;;4930019;29;20229;-67
2021/04/09 05:39:56;;;;;;;16.75;11.63;;;2.80;96.40;;;;;;4928666;29;20209;-67
2021/04/09 05:42:23;;;;;;;15.07;11.52;;;2.60;96.00;;;;;;4928621;29;20214;-67
2021/04/09 05:44:49;;;;;;;12.13;10.80;;;2.10;96.20;;;;;;4926149;29;20623;-66
2021/04/09 05:47:16;;;;;;;12.93;10.23;;;1.80;97.30;;;;;;4924619;29;20703;-67
2021/04/09 05:49:43;;;;;;;12.88;11.45;;;1.60;97.80;;;;;;4924646;29;20695;-67
2021/04/09 05:52:09;;;;;;;12.23;10.93;;;1.50;97.80;;;;;;4927103;29;20317;-68
2021/04/09 05:54:37;;;;;;;12.05;10.25;;;1.50;98.00;;;;;;4928465;29;20217;-67
2021/04/09 05:57:04;;;;;;;12.32;11.02;;;1.70;98.00;;;;;;4924585;29;20293;-67
2021/04/09 05:59:30;;;;;;;13.20;10.80;;;1.90;97.60;;;;;;4927092;29;20605;-67
2021/04/09 06:01:56;;;;;;;10.88;9.77;;;2.10;97.20;;;;;;4926729;29;20199;-67
2021/04/09 06:04:23;;;;;;;11.23;9.73;;;2.20;96.90;;;;;;4926866;29;20212;-67
2021/04/09 06:06:49;;;;;;;11.13;10.02;;;2.80;96.50;;;;;;4925569;29;20229;-67
2021/04/09 06:09:16;;;;;;;14.13;10.50;;;3.40;95.70;;;;;;4929620;29;20209;-67
2021/04/09 06:11:43;;;;;;;11.35;10.15;;;3.70;94.70;;;;;;4927796;29;20213;-67
2021/04/09 06:14:10;;;;;;;12.68;10.90;;;4.30;93.60;;;;;;4918811;29;20277;-67
2021/04/09 06:16:36;;;;;;;11.63;9.88;;;5.30;92.10;;;;;;4927275;29;20216;-68
2021/04/09 06:19:02;;;;;;;13.30;11.68;;;5.90;90.90;;;;;;4922812;29;20206;-67
2021/04/09 06:21:30;;;;;;;14.25;12.65;;;6.10;88.90;;;;;;4929238;29;20214;-67
2021/04/09 06:23:57;;;;;;;18.42;12.98;;;5.70;88.00;;;;;;4923464;29;20224;-67
2021/04/09 06:26:24;;;;;;;18.17;14.18;;;5.90;89.00;;;;;;4924572;29;20324;-67
2021/04/09 06:28:52;;;;;;;15.25;13.65;;;6.00;89.30;;;;;;4927974;29;20269;-67
2021/04/09 06:31:18;;;;;;;13.15;11.75;;;5.80;88.30;;;;;;4927312;29;20576;-67
2021/04/09 06:33:44;;;;;;;15.18;13.45;;;5.80;88.50;;;;;;4928757;29;20328;-68
2021/04/09 06:36:11;;;;;;;15.52;14.02;;;5.70;88.80;;;;;;4928221;29;20297;-68
2021/04/09 06:38:39;;;;;;;14.77;13.20;;;5.60;89.20;;;;;;4927881;29;20335;-67
2021/04/09 06:41:06;;;;;;;15.55;13.25;;;5.60;89.80;;;;;;4927840;29;20280;-67
2021/04/09 06:43:32;;;;;;;14.63;12.88;;;5.70;89.00;;;;;;4927123;29;20299;-67
2021/04/09 06:45:59;;;;;;;13.40;11.63;;;6.20;88.90;;;;;;4925026;29;20202;-67
2021/04/09 06:48:26;;;;;;;14.15;12.85;;;6.70;87.40;;;;;;4929493;29;20205;-67
2021/04/09 06:50:52;;;;;;;12.05;10.75;;;6.60;86.50;;;;;;4927198;29;20202;-67
2021/04/09 06:53:18;;;;;;;18.52;11.45;;;7.20;85.80;;;;;;4926486;29;20212;-67
2021/04/09 06:55:47;;;;;;;11.80;10.65;;;7.50;83.60;;;;;;4928058;29;20224;-67
2021/04/09 06:58:17;;;;;;;14.63;12.30;;;7.50;83.10;;;;;;4927514;29;20265;-68
2021/04/09 07:00:48;;;;;;;13.70;12.30;;;7.40;82.50;;;;;;4927543;29;20329;-68
2021/04/09 07:03:14;;;;;;;13.55;12.15;;;6.90;83.00;;;;;;4925963;29;20734;-68
2021/04/09 07:05:41;;;;;;;13.20;11.90;;;7.10;84.20;;;;;;4926981;29;20229;-68
2021/04/09 07:08:07;;;;;;;14.38;11.73;;;7.60;83.40;;;;;;4923089;29;20316;-67
2021/04/09 07:10:34;;;;;;;12.75;11.25;;;8.30;81.60;;;;;;4929145;29;20666;-67
2021/04/09 07:13:05;;;;;;;16.58;13.15;;;8.40;79.80;;;;;;4925570;29;20206;-67
2021/04/09 07:15:40;;;;;;;14.55;11.80;;;8.50;80.80;;;;;;4927760;29;20589;-67
2021/04/09 07:18:07;;;;;;;15.05;11.70;;;9.20;78.70;;;;;;4927446;29;20202;-67
2021/04/09 07:20:37;;;;;;;13.13;11.70;;;9.30;77.50;;;;;;4928098;29;20210;-67
2021/04/09 07:23:05;;;;;;;12.57;10.60;;;9.40;78.00;;;;;;4928723;29;20627;-67
2021/04/09 07:25:37;;;;;;;15.05;12.13;;;9.20;77.10;;;;;;4927436;29;20222;-67
2021/04/09 07:28:16;;;;;;;14.07;12.10;;;9.20;76.90;;;;;;4928974;29;20863;-67
2021/04/09 07:30:49;;;;;;;18.30;12.77;;;9.00;78.10;;;;;;4928808;29;20300;-67
2021/04/09 07:33:16;;;;;;;13.32;11.80;;;9.50;77.80;;;;;;4928706;29;20220;-67
2021/04/09 07:35:48;;;;;;;13.52;11.48;;;9.40;77.20;;;;;;4927476;29;20206;-67
2021/04/09 07:38:24;;;;;;;13.98;12.43;;;9.50;77.30;;;;;;4923288;29;20308;-67
2021/04/09 07:40:53;;;;;;;13.65;11.80;;;9.60;76.80;;;;;;4928837;29;20216;-67
2021/04/09 07:43:21;;;;;;;13.43;12.10;;;9.60;76.60;;;;;;4927952;29;20210;-67
2021/04/09 07:45:49;;;;;;;13.32;11.65;;;9.20;77.50;;;;;;4928212;29;20209;-67
2021/04/09 07:48:18;;;;;;;15.48;11.88;;;9.80;77.30;;;;;;4932009;29;20233;-67
2021/04/09 07:50:47;;;;;;;13.27;11.98;;;9.90;75.80;;;;;;4931477;29;20217;-67
2021/04/09 07:53:17;;;;;;;14.45;13.05;;;9.30;77.20;;;;;;4926612;29;20210;-67
2021/04/09 07:55:45;;;;;;;16.73;13.05;;;9.00;77.40;;;;;;4932014;29;20510;-67
2021/04/09 07:58:20;;;;;;;14.45;12.95;;;8.60;79.50;;;;;;4932239;29;20216;-68
2021/04/09 08:00:48;;;;;;;14.18;12.52;;;8.50;80.20;;;;;;4932301;29;20325;-68
2021/04/09 08:03:32;;;;;;;13.25;11.95;;;8.50;80.40;;;;;;4926839;29;20209;-67
2021/04/09 08:06:09;;;;;;;14.27;12.75;;;8.50;80.50;;;;;;4930992;29;20206;-67
2021/04/09 08:08:37;;;;;;;21.63;12.68;;;8.60;80.00;;;;;;4932369;29;20213;-67
2021/04/09 08:11:20;;;;;;;14.57;12.45;;;8.90;81.00;;;;;;4929349;29;20201;-67
2021/04/09 08:14:00;;;;;;;13.93;12.32;;;9.10;79.40;;;;;;4929401;29;20202;-68
2021/04/09 08:16:27;;;;;;;12.57;11.38;;;9.30;78.70;;;;;;4928004;29;20223;-67
2021/04/09 08:18:57;;;;;;;13.18;11.88;;;9.40;77.20;;;;;;4928976;29;20202;-67
2021/04/09 08:21:26;;;;;;;12.32;11.07;;;9.60;76.80;;;;;;4932132;29;20213;-68
2021/04/09 08:23:54;;;;;;;14.55;11.75;;;9.60;77.20;;;;;;4931233;29;20582;-67
2021/04/09 08:26:21;;;;;;;18.70;11.40;;;9.90;77.20;;;;;;4931018;29;20214;-68
2021/04/09 08:28:48;;;;;;;14.85;11.35;;;9.90;77.10;;;;;;4932106;29;20356;-67
2021/04/09 08:31:16;;;;;;;12.93;10.85;;;10.50;76.20;;;;;;4926631;29;20738;-68
2021/04/09 08:33:43;;;;;;;12.52;9.00;;;10.60;77.50;;;;;;4930883;29;20328;-68
2021/04/09 08:36:10;;;;;;;9.77;8.85;;;10.90;73.90;;;;;;4929774;29;20214;-68
2021/04/09 08:38:37;;;;;;;8.77;7.65;;;11.10;73.20;;;;;;4931023;29;20213;-68
2021/04/09 08:41:03;;;;;;;8.75;7.75;;;11.50;70.80;;;;;;4931847;29;20202;-68
2021/04/09 08:43:31;;;;;;;8.07;7.32;;;11.60;69.20;;;;;;4930163;29;20238;-67
2021/04/09 08:45:57;;;;;;;9.90;8.57;;;11.70;70.80;;;;;;4928510;29;20206;-67
2021/04/09 08:48:25;;;;;;;8.02;7.22;;;11.70;68.90;;;;;;4931488;29;20585;-68
2021/04/09 08:50:51;;;;;;;11.27;8.30;;;11.90;68.70;;;;;;4931189;29;20217;-67
2021/04/09 08:53:24;;;;;;;8.88;8.07;;;12.10;68.40;;;;;;4930434;29;20209;-68
2021/04/09 08:55:50;;;;;;;8.35;7.45;;;12.20;67.90;;;;;;4924542;29;20202;-68
2021/04/09 08:58:18;;;;;;;8.63;7.72;;;12.50;68.00;;;;;;4930111;29;20263;-68
2021/04/09 09:00:45;;;;;;;9.73;7.80;;;12.50;65.20;;;;;;4931444;29;20296;-68
2021/04/09 09:03:23;;;;;;;13.07;11.68;;;12.60;63.10;;;;;;4931710;29;20277;-68
2021/04/09 09:06:00;;;;;;;12.32;10.80;;;12.80;66.10;;;;;;4930002;29;20220;-68
2021/04/09 09:08:59;;;;;;;11.13;10.13;;;12.70;66.50;;;;;;4931647;29;20384;-68
2021/04/09 09:11:53;;;;;;;10.80;9.75;;;12.70;66.70;;;;;;4930288;29;20245;-67
2021/04/09 09:14:39;;;;;;;10.23;9.23;;;12.60;70.10;;;;;;4923426;29;20570;-68
2021/04/09 09:17:42;;;;;;;9.30;8.40;;;12.50;67.50;;;;;;4928448;29;20235;-68
2021/04/09 09:20:13;;;;;;;9.38;8.50;;;12.80;66.50;;;;;;4929464;29;20672;-68
2021/04/09 09:22:50;;;;;;;8.32;7.53;;;13.10;64.30;;;;;;4931215;29;20240;-68
2021/04/09 09:25:40;;;;;;;9.65;7.93;;;13.30;62.70;;;;;;4930142;29;20209;-68
2021/04/09 09:28:10;;;;;;;9.35;8.40;;;13.60;61.80;;;;;;4928611;29;20233;-68
2021/04/09 09:30:38;;;;;;;11.35;9.13;;;13.70;60.70;;;;;;4931159;29;20663;-70
2021/04/09 09:33:25;;;;;;;9.30;8.43;;;13.70;60.30;;;;;;4925780;29;20210;-68
2021/04/09 09:36:06;;;;;;;12.07;8.95;;;13.80;61.10;;;;;;4929767;29;20225;-68
2021/04/09 09:38:54;;;;;;;9.90;8.77;;;13.80;60.80;;;;;;4927914;29;20209;-68
2021/04/09 09:41:44;;;;;;;8.25;7.45;;;13.60;61.20;;;;;;4929298;29;20248;-68
2021/04/09 09:44:29;;;;;;;10.50;9.55;;;13.30;61.20;;;;;;4929481;29;20205;-68
2021/04/09 09:46:57;;;;;;;10.52;9.48;;;13.50;61.60;;;;;;4928529;29;21122;-67
2021/04/09 09:49:24;;;;;;;11.82;9.02;;;13.40;61.70;;;;;;4930525;29;20268;-68
2021/04/09 09:51:51;;;;;;;10.63;8.48;;;13.10;62.80;;;;;;4925349;29;20269;-68
2021/04/09 09:54:36;;;;;;;11.32;8.10;;;13.20;62.30;;;;;;4929344;29;20293;-68
2021/04/09 09:57:35;;;;;;;9.38;8.43;;;13.30;62.00;;;;;;4929722;29;20387;-68
2021/04/09 10:00:01;;;;;;;15.98;8.80;;;13.40;62.00;;;;;;4919678;29;20305;-68
2021/04/09 10:02:28;;;;;;;9.88;8.88;;;13.50;61.80;;;;;;4930376;29;20614;-68
2021/04/09 10:04:55;;;;;;;8.82;7.93;;;13.30;61.20;;;;;;4928270;29;20257;-68
2021/04/09 10:07:22;;;;;;;11.43;8.73;;;13.00;62.10;;;;;;4930577;29;20241;-68
2021/04/09 10:09:53;;;;;;;11.02;8.00;;;13.20;62.30;;;;;;4930125;29;21228;-68
2021/04/09 10:12:21;;;;;;;8.77;7.88;;;13.20;61.70;;;;;;4926371;29;20301;-68
2021/04/09 10:14:48;;;;;;;13.93;8.75;;;13.70;62.80;;;;;;4928752;29;20202;-68
2021/04/09 10:17:14;;;;;;;9.00;8.20;;;14.20;60.80;;;;;;4929727;29;20209;-68
2021/04/09 10:19:56;;;;;;;9.32;8.43;;;14.60;59.70;;;;;;4929942;29;20313;-69
2021/04/09 10:22:23;;;;;;;9.73;8.82;;;14.90;59.20;;;;;;4928544;29;20300;-68
2021/04/09 10:24:50;;;;;;;9.88;8.50;;;15.00;58.60;;;;;;4927674;29;20252;-68
2021/04/09 10:27:17;;;;;;;11.15;8.50;;;15.30;58.50;;;;;;4929679;29;20749;-69
2021/04/09 10:29:43;;;;;;;9.20;8.30;;;15.50;57.80;;;;;;4930295;29;20324;-68
2021/04/09 10:32:15;;;;;;;9.77;8.10;;;15.70;58.00;;;;;;4929594;29;20209;-68
2021/04/09 10:34:41;;;;;;;10.63;9.50;;;15.80;57.10;;;;;;4928210;29;20293;-69
2021/04/09 10:37:08;;;;;;;9.20;8.30;;;16.00;57.40;;;;;;4929089;29;20611;-68
2021/04/09 10:39:38;;;;;;;9.35;8.45;;;16.10;57.60;;;;;;4927169;29;20209;-68
2021/04/09 10:42:06;;;;;;;9.75;8.55;;;16.50;57.30;;;;;;4929839;29;20304;-68
2021/04/09 10:44:33;;;;;;;7.30;6.60;;;16.50;58.00;;;;;;4928698;29;20210;-68
2021/04/09 10:47:01;;;;;;;7.70;3.60;;;16.50;57.10;;;;;;4928319;29;20226;-68
2021/04/09 10:49:29;;;;;;;4.03;3.38;;;16.60;53.40;;;;;;4929504;29;20209;-68
2021/04/09 10:51:58;;;;;;;4.45;3.25;;;16.40;49.70;;;;;;4923624;29;20209;-68
2021/04/09 10:54:26;;;;;;;3.90;3.58;;;16.50;51.60;;;;;;4923531;29;20306;-70
2021/04/09 10:56:55;;;;;;;6.65;3.95;;;16.60;51.90;;;;;;4925969;29;20214;-68
2021/04/09 10:59:25;;;;;;;4.22;3.50;;;16.50;50.30;;;;;;4929041;29;20237;-68
2021/04/09 11:01:52;;;;;;;4.43;3.50;;;16.30;50.30;;;;;;4929096;29;20275;-68
2021/04/09 11:04:19;;;;;;;4.82;3.95;;;16.60;51.60;;;;;;4926251;29;20209;-68
2021/04/09 11:06:49;;;;;;;3.92;3.63;;;16.50;49.80;;;;;;4921273;29;20268;-68
2021/04/09 11:09:16;;;;;;;3.35;3.05;;;16.50;50.50;;;;;;4926304;29;20276;-68
2021/04/09 11:11:42;;;;;;;3.67;3.33;;;16.30;50.40;;;;;;4927260;29;20214;-67
2021/04/09 11:14:12;;;;;;;3.60;3.30;;;16.40;51.00;;;;;;4925212;29;20205;-67
2021/04/09 11:17:03;;;;;;;4.50;4.03;;;16.20;49.90;;;;;;4925693;29;20213;-68
2021/04/09 11:19:33;;;;;;;4.50;4.10;;;16.00;49.90;;;;;;4912267;29;20296;-68
2021/04/09 11:22:02;;;;;;;3.30;3.10;;;15.90;50.70;;;;;;4926153;29;20201;-67
2021/04/09 11:24:32;;;;;;;5.45;3.08;;;15.90;50.20;;;;;;4925137;29;20224;-68
2021/04/09 11:27:00;;;;;;;4.10;3.20;;;15.60;50.60;;;;;;4927894;29;20260;-68
2021/04/09 11:29:28;;;;;;;4.40;3.60;;;15.70;50.10;;;;;;4927050;29;20216;-69
2021/04/09 11:32:10;;;;;;;3.67;3.38;;;15.70;50.40;;;;;;4924046;29;20205;-68
2021/04/09 11:34:37;;;;;;;4.20;3.67;;;15.70;49.90;;;;;;4921765;29;20301;-68
2021/04/09 11:37:04;;;;;;;4.15;3.15;;;15.80;50.00;;;;;;4926257;29;20202;-68
2021/04/09 11:39:31;;;;;;;4.03;3.30;;;15.80;50.20;;;;;;4928856;29;20982;-68
2021/04/09 11:41:58;;;;;;;4.00;3.65;;;15.70;50.40;;;;;;4926376;29;20208;-71
2021/04/09 11:44:35;;;;;;;3.50;3.20;;;15.60;49.70;;;;;;4926311;29;20667;-72
2021/04/09 11:47:21;;;;;;;4.18;3.75;;;16.00;51.20;;;;;;4924072;29;20256;-72
2021/04/09 11:49:59;;;;;;;4.95;3.10;;;15.70;49.40;;;;;;4927389;29;20202;-71
2021/04/09 11:52:26;;;;;;;4.20;3.80;;;16.00;50.60;;;;;;4927293;29;20622;-71
2021/04/09 11:54:52;;;;;;;4.50;4.20;;;16.00;50.10;;;;;;4923673;29;20292;-69
2021/04/09 11:57:23;;;;;;;4.18;3.60;;;16.20;50.40;;;;;;4926128;29;20294;-72
2021/04/09 11:59:49;;;;;;;7.53;4.57;;;16.60;50.80;;;;;;4928046;29;20243;-71
2021/04/09 12:02:19;;;;;;;4.22;3.92;;;16.70;51.60;;;;;;4925506;29;20216;-72
2021/04/09 12:04:46;;;;;;;4.00;3.63;;;17.10;50.90;;;;;;4926254;29;20479;-68
2021/04/09 12:07:15;;;;;;;6.20;5.70;;;17.40;50.60;;;;;;4925363;29;21000;-68
2021/04/09 12:09:43;;;;;;;4.53;3.78;;;17.50;48.70;;;;;;4925967;29;20214;-68
2021/04/09 12:12:12;;;;;;;8.10;5.03;;;17.30;49.60;;;;;;4924223;29;20237;-69
2021/04/09 12:14:41;;;;;;;3.72;3.42;;;17.40;49.40;;;;;;4925763;29;20694;-68
2021/04/09 12:17:08;;;;;;;3.97;3.65;;;17.40;48.90;;;;;;4924599;29;20198;-68
2021/04/09 12:19:37;;;;;;;5.20;3.55;;;17.60;46.80;;;;;;4925646;29;20229;-68
2021/04/09 12:22:04;;;;;;;4.93;3.85;;;17.70;48.90;;;;;;4923729;29;20213;-68
2021/04/09 12:24:31;;;;;;;3.17;2.97;;;18.00;49.70;;;;;;4924356;29;20214;-68
2021/04/09 12:26:58;;;;;;;3.65;3.35;;;17.60;45.80;;;;;;4926698;29;20674;-68
2021/04/09 12:29:24;;;;;;;3.42;3.13;;;17.70;49.60;;;;;;4927705;29;20213;-68
2021/04/09 12:31:50;;;;;;;3.90;3.33;;;17.80;49.70;;;;;;4930474;29;20202;-68
2021/04/09 12:34:19;;;;;;;3.42;2.83;;;17.70;48.60;;;;;;4930591;29;20216;-68
2021/04/09 12:36:46;;;;;;;4.27;3.30;;;17.90;49.80;;;;;;4931359;29;20262;-68
2021/04/09 12:39:13;;;;;;;3.50;3.20;;;18.00;49.40;;;;;;4931051;29;20632;-68
2021/04/09 12:41:40;;;;;;;3.40;2.93;;;18.10;47.20;;;;;;4929669;29;21052;-68
2021/04/09 12:44:08;;;;;;;3.33;3.00;;;18.00;48.50;;;;;;4930199;29;20637;-68
2021/04/09 12:46:35;;;;;;;4.20;3.33;;;18.20;49.50;;;;;;4930586;29;20634;-68
2021/04/09 12:49:02;;;;;;;3.90;3.60;;;18.40;47.30;;;;;;4930653;29;20656;-67